Terminal Aerodrome Forecast
Issued by NWS

Home | Current Version | Previous Version | Text Only | Print | Product List | Glossary On
Versions: 1 2 3 4 5 6 7 8 9 10 11 12 13 14 15 16 17 18 19 20 21 22 23 24 25 26 27 28 29 30 31 32 33 34 35 36
000
FTUS46 KOTX 260107 AAA
TAFSFF
TAF AMD
KSFF 260107Z 2601/2624 22010KT P6SM BKN050 BKN070 OVC080
     FM260400 16005KT P6SM SCT060 BKN100 OVC200
     FM260800 21005KT P6SM -RA BKN025 OVC045
     FM261300 21008KT P6SM VCSH BKN015 OVC030
     FM261700 22010G16KT P6SM -SHRA SCT035 BKN060=

USA.gov is the U.S. government's official web portal to all federal, state and local government web resources and services.